createdAt,value
2024-04-14T00:01:05.351Z,100256.53
2024-04-14T00:03:57.987Z,100256.78
2024-04-14T00:06:28.177Z,100258.88
2024-04-14T00:08:56.552Z,100266.66
2024-04-14T00:11:24.159Z,100257.09
2024-04-14T00:13:52.908Z,100252.41
2024-04-14T00:16:20.109Z,100262.63
2024-04-14T00:18:48.086Z,100264.16
2024-04-14T00:21:23.860Z,100258.38
2024-04-14T00:23:53.384Z,100262.16
2024-04-14T00:26:20.620Z,100258.25
2024-04-14T00:28:50.393Z,100250.63
2024-04-14T00:31:18.592Z,100250.88
2024-04-14T00:33:46.037Z,100253.22
2024-04-14T00:36:13.504Z,100253.69
2024-04-14T00:38:40.768Z,100247.09
2024-04-14T00:41:08.019Z,100247.56
2024-04-14T00:43:35.174Z,100248.03
2024-04-14T00:46:02.917Z,100248.50
2024-04-14T00:48:30.219Z,100236.50
2024-04-14T00:50:58.460Z,100236.16
2024-04-14T00:53:25.994Z,100237.44
2024-04-14T00:55:54.152Z,100232.75
2024-04-14T00:58:21.448Z,100230.50
2024-04-14T01:00:49.253Z,100227.47
2024-04-14T01:03:16.539Z,100228.13
2024-04-14T01:05:43.847Z,100230.47
2024-04-14T01:08:13.073Z,100226.59
2024-04-14T01:10:43.623Z,100223.53
2024-04-14T01:13:10.865Z,100234.00
2024-04-14T01:15:38.124Z,100225.50
2024-04-14T01:18:07.817Z,100217.28
2024-04-14T01:20:36.058Z,100232.28
2024-04-14T01:23:03.324Z,100219.47
2024-04-14T01:25:30.596Z,100218.25
2024-04-14T01:27:57.992Z,100222.50
2024-04-14T01:30:25.501Z,100214.25
2024-04-14T01:32:57.433Z,100216.59
2024-04-14T01:35:34.377Z,100213.53
2024-04-14T01:38:12.433Z,100215.63
2024-04-14T01:40:55.190Z,100216.31
2024-04-14T01:43:43.649Z,100212.41
2024-04-14T01:46:15.619Z,100216.16
2024-04-14T01:48:45.167Z,100207.72
2024-04-14T01:51:17.575Z,100207.09
2024-04-14T01:53:49.699Z,100215.44
2024-04-14T01:56:19.857Z,100207.56
2024-04-14T01:58:47.499Z,100209.69
2024-04-14T02:01:15.433Z,100201.78
2024-04-14T02:03:50.025Z,100204.72
2024-04-14T02:06:19.860Z,100200.63
2024-04-14T02:08:47.553Z,100195.47
2024-04-14T02:11:14.819Z,100209.97
2024-04-14T02:13:42.200Z,100202.34
2024-04-14T02:16:09.860Z,100211.50
2024-04-14T02:18:37.450Z,100208.22
2024-04-14T02:21:05.253Z,100204.06
2024-04-14T02:23:32.482Z,100207.25
2024-04-14T02:26:02.606Z,100206.63
2024-04-14T02:28:32.344Z,100208.72
2024-04-14T02:31:00.931Z,100215.41
2024-04-14T02:33:28.460Z,100197.59
2024-04-14T02:36:03.102Z,100210.47
2024-04-14T02:38:43.023Z,100201.78
2024-04-14T02:41:10.598Z,100206.59
2024-04-14T02:43:40.067Z,100209.72
2024-04-14T02:46:07.334Z,100215.09
2024-04-14T02:48:34.589Z,100215.56
2024-04-14T02:51:01.856Z,100213.06
2024-04-14T02:53:30.920Z,100215.19
2024-04-14T02:55:58.107Z,100216.25
2024-04-14T02:58:25.267Z,100209.44
2024-04-14T03:01:05.217Z,100208.19
2024-04-14T03:03:35.117Z,100211.94
2024-04-14T03:06:04.584Z,100205.34
2024-04-14T03:08:40.288Z,100202.28
2024-04-14T03:11:08.979Z,100209.53
2024-04-14T03:13:36.426Z,100211.63
2024-04-14T03:16:05.073Z,100213.72
2024-04-14T03:18:32.456Z,100215.84
2024-04-14T03:21:04.439Z,100217.91
2024-04-14T03:23:33.081Z,100210.03
2024-04-14T03:26:05.444Z,100205.94
2024-04-14T03:28:35.450Z,100214.03
2024-04-14T03:31:03.951Z,100212.59
2024-04-14T03:33:31.920Z,100213.88
2024-04-14T03:36:08.860Z,100210.56
2024-04-14T03:38:36.505Z,100213.50
2024-04-14T03:41:04.149Z,100210.19
2024-04-14T03:43:31.490Z,100209.00
2024-04-14T03:45:58.906Z,100218.34
2024-04-14T03:48:26.390Z,100212.34
2024-04-14T03:50:54.249Z,100220.84
2024-04-14T03:53:21.514Z,100220.25
2024-04-14T03:55:49.828Z,100213.69
2024-04-14T03:58:17.102Z,100220.09
2024-04-14T04:00:46.138Z,100219.72
2024-04-14T04:03:13.373Z,100215.81
2024-04-14T04:05:43.139Z,100214.41
2024-04-14T04:08:10.331Z,100222.09
2024-04-14T04:10:37.508Z,100216.31
2024-04-14T04:13:04.848Z,100222.13
2024-04-14T04:15:32.238Z,100221.75
2024-04-14T04:17:59.512Z,100225.09
2024-04-14T04:20:26.714Z,100230.94
2024-04-14T04:22:53.928Z,100230.53
2024-04-14T04:25:21.078Z,100242.59
2024-04-14T04:27:48.333Z,100237.84
2024-04-14T04:30:16.190Z,100238.31
2024-04-14T04:32:43.618Z,100236.25
2024-04-14T04:35:10.940Z,100249.31
2024-04-14T04:37:41.053Z,100244.56
2024-04-14T04:40:08.882Z,100248.72
2024-04-14T04:42:38.626Z,100251.03
2024-04-14T04:45:06.069Z,100249.78
2024-04-14T04:47:34.867Z,100247.75
2024-04-14T04:50:02.226Z,100247.38
2024-04-14T04:52:29.476Z,100259.59
2024-04-14T04:54:56.721Z,100251.13
2024-04-14T04:57:23.962Z,100252.59
2024-04-14T04:59:51.231Z,100258.19
2024-04-14T05:02:18.487Z,100254.28
2024-04-14T05:04:45.723Z,100264.44
2024-04-14T05:07:12.913Z,100260.28
2024-04-14T05:09:40.123Z,100261.53
2024-04-14T05:12:10.255Z,100255.78
2024-04-14T05:14:37.871Z,100263.03
2024-04-14T05:17:05.099Z,100263.44
2024-04-14T05:19:32.396Z,100264.88
2024-04-14T05:21:59.683Z,100259.72
2024-04-14T05:24:26.914Z,100263.69
2024-04-14T05:26:54.143Z,100267.41
2024-04-14T05:29:21.318Z,100267.59
2024-04-14T05:31:48.511Z,100267.81
2024-04-14T05:34:15.832Z,100273.19
2024-04-14T05:36:43.034Z,100276.94
2024-04-14T05:39:10.252Z,100278.78
2024-04-14T05:41:37.579Z,100274.47
2024-04-14T05:44:06.751Z,100284.19
2024-04-14T05:46:33.971Z,100286.88
2024-04-14T05:49:17.751Z,100276.94
2024-04-14T05:51:48.515Z,100283.13
2024-04-14T05:54:15.920Z,100284.78
2024-04-14T05:56:43.289Z,100283.72
2024-04-14T05:59:11.156Z,100289.13
2024-04-14T06:01:39.101Z,100293.47
2024-04-14T06:04:06.811Z,100291.41
2024-04-14T06:06:34.312Z,100293.03
2024-04-14T06:09:08.763Z,100297.16
2024-04-14T06:11:36.135Z,100296.75
2024-04-14T06:14:03.492Z,100297.16
2024-04-14T06:16:30.897Z,100294.03
2024-04-14T06:18:58.408Z,100291.56
2024-04-14T06:21:28.097Z,100290.88
2024-04-14T06:23:55.345Z,100302.69
2024-04-14T06:26:25.045Z,100294.78
2024-04-14T06:28:52.917Z,100298.50
2024-04-14T06:31:21.601Z,100311.09
2024-04-14T06:33:49.105Z,100302.38
2024-04-14T06:36:16.495Z,100299.88
2024-04-14T06:38:46.555Z,100301.09
2024-04-14T06:41:14.289Z,100287.84
2024-04-14T06:43:42.500Z,100297.13
2024-04-14T06:46:09.914Z,100293.56
2024-04-14T06:48:37.331Z,100295.63
2024-04-14T06:51:05.559Z,100297.66
2024-04-14T06:53:39.869Z,100297.63
2024-04-14T06:56:07.528Z,100299.66
2024-04-14T06:58:36.869Z,100295.28
2024-04-14T07:01:04.353Z,100291.72
2024-04-14T07:03:33.161Z,100287.09
2024-04-14T07:06:40.258Z,100291.38
2024-04-14T07:09:07.561Z,100293.22
2024-04-14T07:11:34.961Z,100290.69
2024-04-14T07:14:02.264Z,100288.97
2024-04-14T07:16:29.455Z,100300.53
2024-04-14T07:19:04.070Z,100291.75
2024-04-14T07:21:31.391Z,100298.13
2024-04-14T07:24:01.577Z,100293.75
2024-04-14T07:26:29.305Z,100289.09
2024-04-14T07:29:19.808Z,100290.94
2024-04-14T07:31:47.504Z,100295.69
2024-04-14T07:34:15.054Z,100294.16
2024-04-14T07:36:45.474Z,100297.84
2024-04-14T07:39:15.878Z,100291.78
2024-04-14T07:41:43.488Z,100297.34
2024-04-14T07:44:13.077Z,100301.63
2024-04-14T07:46:41.076Z,100298.22
2024-04-14T07:49:08.280Z,100306.25
2024-04-14T07:51:35.649Z,100300.16
2024-04-14T07:54:02.887Z,100308.19
2024-04-14T07:56:30.068Z,100303.78
2024-04-14T07:58:57.235Z,100302.63
2024-04-14T08:01:30.084Z,100306.06
2024-04-14T08:03:58.381Z,100298.94
2024-04-14T08:06:25.825Z,100301.53
2024-04-14T08:09:02.586Z,100306.03
2024-04-14T08:11:30.036Z,100298.69
2024-04-14T08:13:57.413Z,100303.19
2024-04-14T08:16:25.845Z,100304.97
2024-04-14T08:18:55.529Z,100299.47
2024-04-14T08:21:23.904Z,100299.38
2024-04-14T08:23:52.071Z,100310.09
2024-04-14T08:26:19.613Z,100300.22
2024-04-14T08:28:47.307Z,100300.13
2024-04-14T08:31:14.791Z,100304.56
2024-04-14T08:33:42.261Z,100306.13
2024-04-14T08:36:14.025Z,100304.59
2024-04-14T08:38:41.371Z,100295.31
2024-04-14T08:41:08.687Z,100291.91
2024-04-14T08:43:38.100Z,100298.03
2024-04-14T08:46:07.327Z,100299.78
2024-04-14T08:48:34.844Z,100306.75
2024-04-14T08:51:04.017Z,100302.28
2024-04-14T08:53:32.522Z,100302.41
2024-04-14T08:55:59.838Z,100298.97
2024-04-14T08:58:33.134Z,100299.91
2024-04-14T09:01:06.592Z,100291.91
2024-04-14T09:03:33.943Z,100298.72
2024-04-14T09:06:07.786Z,100296.13
2024-04-14T09:08:35.251Z,100300.03
2024-04-14T09:11:03.359Z,100303.06
2024-04-14T09:13:32.513Z,100295.53
2024-04-14T09:16:03.139Z,100300.22
2024-04-14T09:18:30.365Z,100293.28
2024-04-14T09:21:02.785Z,100297.16
2024-04-14T09:23:30.058Z,100291.00
2024-04-14T09:25:59.905Z,100287.59
2024-04-14T09:28:27.097Z,100291.22
2024-04-14T09:30:57.016Z,100289.66
2024-04-14T09:33:24.660Z,100285.19
2024-04-14T09:35:52.651Z,100275.03
2024-04-14T09:38:19.942Z,100281.13
2024-04-14T09:40:48.417Z,100283.47
2024-04-14T09:43:17.561Z,100279.56
2024-04-14T09:45:45.298Z,100273.72
2024-04-14T09:48:14.717Z,100277.66
2024-04-14T09:50:48.404Z,100272.44
2024-04-14T09:53:19.599Z,100271.50
2024-04-14T09:55:47.153Z,100266.84
2024-04-14T09:58:14.347Z,100269.72
2024-04-14T10:00:42.173Z,100263.38
2024-04-14T10:03:11.248Z,100267.66
2024-04-14T10:05:43.237Z,100265.66
2024-04-14T10:08:14.109Z,100263.91
2024-04-14T10:10:42.579Z,100261.06
2024-04-14T10:13:10.111Z,100260.38
2024-04-14T10:15:45.699Z,100253.41
2024-04-14T10:18:17.272Z,100256.28
2024-04-14T10:20:49.466Z,100256.66
2024-04-14T10:23:19.209Z,100246.72
2024-04-14T10:25:53.806Z,100244.09
2024-04-14T10:28:23.676Z,100244.22
2024-04-14T10:31:15.856Z,100240.53
2024-04-14T10:33:45.842Z,100246.03
2024-04-14T10:36:13.106Z,100245.28
2024-04-14T10:39:14.967Z,100238.06
2024-04-14T10:41:43.023Z,100233.78
2024-04-14T10:44:22.580Z,100236.59
2024-04-14T10:46:59.045Z,100239.41
2024-04-14T10:49:35.349Z,100235.09
2024-04-14T10:52:04.420Z,100231.06
2024-04-14T10:54:34.410Z,100224.81
2024-04-14T10:57:03.567Z,100215.59
2024-04-14T10:59:30.865Z,100212.63
2024-04-14T11:03:08.825Z,100210.50
2024-04-14T11:05:45.582Z,100205.66
2024-04-14T11:08:46.004Z,100202.69
2024-04-14T11:11:45.172Z,100198.88
2024-04-14T11:14:19.091Z,100200.78
2024-04-14T11:16:46.715Z,100208.16
2024-04-14T11:22:01.552Z,100192.38
2024-04-14T11:24:28.953Z,100187.22
2024-04-14T11:26:56.136Z,100189.13
2024-04-14T11:29:23.363Z,100189.16
2024-04-14T11:31:50.716Z,100184.81
2024-04-14T11:34:19.940Z,100177.16
2024-04-14T11:36:48.910Z,100173.34
2024-04-14T11:39:16.659Z,100165.16
2024-04-14T11:41:49.834Z,100166.00
2024-04-14T11:44:19.761Z,100169.28
2024-04-14T11:46:48.735Z,100164.63
2024-04-14T11:49:18.582Z,100163.53
2024-04-14T11:51:46.048Z,100170.16
2024-04-14T11:54:13.207Z,100161.94
2024-04-14T11:56:40.335Z,100164.69
2024-04-14T11:59:10.998Z,100154.88
2024-04-14T12:01:38.428Z,100151.88
2024-04-14T12:04:06.032Z,100151.88
2024-04-14T12:06:35.567Z,100150.22
2024-04-14T12:09:05.197Z,100147.78
2024-04-14T12:11:32.466Z,100144.50
2024-04-14T12:13:59.595Z,100144.50
2024-04-14T12:16:26.851Z,100139.03
2024-04-14T12:18:54.121Z,100130.84
2024-04-14T12:21:21.843Z,100135.50
2024-04-14T12:23:49.251Z,100129.75
2024-04-14T12:26:16.595Z,100131.41
2024-04-14T12:28:43.715Z,100130.03
2024-04-14T12:31:10.972Z,100115.03
2024-04-14T12:33:38.165Z,100112.56
2024-04-14T12:36:11.138Z,100118.03
2024-04-14T12:38:38.516Z,100104.34
2024-04-14T12:41:05.784Z,100107.38
2024-04-14T12:43:33.010Z,100104.06
2024-04-14T12:46:00.290Z,100111.72
2024-04-14T12:48:27.574Z,100110.34
2024-04-14T12:50:54.736Z,100109.00
2024-04-14T12:53:25.875Z,100099.13
2024-04-14T12:55:53.044Z,100105.69
2024-04-14T12:58:20.193Z,100101.56
2024-04-14T13:00:47.487Z,100088.72
2024-04-14T13:03:14.865Z,100093.63
2024-04-14T13:05:47.272Z,100095.25
2024-04-14T13:08:14.387Z,100087.03
2024-04-14T13:10:41.624Z,100081.00
2024-04-14T13:13:09.808Z,100076.63
2024-04-14T13:15:37.410Z,100071.69
2024-04-14T13:18:05.098Z,100066.22
2024-04-14T13:20:32.414Z,100065.09
2024-04-14T13:23:00.165Z,100060.13
2024-04-14T13:25:33.051Z,100049.41
2024-04-14T13:28:07.274Z,100046.34
2024-04-14T13:30:35.460Z,100043.00
2024-04-14T13:33:02.752Z,100055.56
2024-04-14T13:35:30.088Z,100046.81
2024-04-14T13:37:57.466Z,100041.59
2024-04-14T13:40:25.866Z,100038.00
2024-04-14T13:42:53.338Z,100035.25
2024-04-14T13:45:23.657Z,100039.56
2024-04-14T13:47:52.321Z,100021.75
2024-04-14T13:50:19.762Z,100019.78
2024-04-14T13:52:47.014Z,100022.50
2024-04-14T13:55:14.677Z,100030.09
2024-04-14T13:57:41.996Z,100016.94
2024-04-14T14:00:17.972Z,100012.25
2024-04-14T14:02:45.373Z,100019.09
2024-04-14T14:05:13.321Z,100008.16
2024-04-14T14:07:41.086Z,100007.03
2024-04-14T14:10:08.524Z,99990.63
2024-04-14T14:12:35.694Z,100000.97
2024-04-14T14:15:02.955Z,99998.75
2024-04-14T14:17:31.246Z,99993.28
2024-04-14T14:19:58.762Z,99984.56
2024-04-14T14:22:26.049Z,99983.53
2024-04-14T14:24:53.266Z,99987.94
2024-04-14T14:27:23.760Z,99983.31
2024-04-14T14:29:51.416Z,99979.53
2024-04-14T14:32:21.095Z,99983.94
2024-04-14T14:35:27.109Z,99986.16
2024-04-14T14:37:54.283Z,99965.16
2024-04-14T14:40:21.459Z,99970.38
2024-04-14T14:42:49.184Z,99978.34
2024-04-14T14:45:16.701Z,99966.88
2024-04-14T14:47:47.817Z,99960.06
2024-04-14T14:50:16.147Z,99954.66
2024-04-14T14:52:43.420Z,99956.31
2024-04-14T14:55:10.732Z,99950.59
2024-04-14T14:57:38.032Z,99950.34
2024-04-14T15:00:06.886Z,99953.38
2024-04-14T15:02:35.057Z,99949.28
2024-04-14T15:05:02.471Z,99948.75
2024-04-14T15:07:29.713Z,99949.03
2024-04-14T15:09:57.653Z,99943.59
2024-04-14T15:12:24.981Z,99940.56
2024-04-14T15:14:52.158Z,99933.47
2024-04-14T15:17:19.474Z,99938.94
2024-04-14T15:19:46.892Z,99924.16
2024-04-14T15:22:18.643Z,99926.59
2024-04-14T15:24:48.721Z,99924.16
2024-04-14T15:27:18.164Z,99928.22
2024-04-14T15:29:46.698Z,99920.56
2024-04-14T15:32:13.981Z,99920.00
2024-04-14T15:34:47.041Z,99920.81
2024-04-14T15:37:18.141Z,99909.06
2024-04-14T15:39:46.870Z,99914.53
2024-04-14T15:42:14.244Z,99901.13
2024-04-14T15:44:49.537Z,99897.06
2024-04-14T15:47:21.460Z,99896.53
2024-04-14T15:49:53.915Z,99894.09
2024-04-14T15:52:23.802Z,99892.16
2024-04-14T15:55:02.363Z,99890.25
2024-04-14T15:57:39.919Z,99900.38
2024-04-14T16:00:12.587Z,99883.47
2024-04-14T16:02:42.972Z,99882.63
2024-04-14T16:05:21.278Z,99879.09
2024-04-14T16:07:49.048Z,99877.44
2024-04-14T16:10:16.635Z,99869.25
2024-04-14T16:12:48.982Z,99868.44
2024-04-14T16:15:17.352Z,99869.84
2024-04-14T16:17:52.551Z,99861.94
2024-04-14T16:20:22.594Z,99852.66
2024-04-14T16:22:51.237Z,99856.25
2024-04-14T16:25:18.898Z,99847.03
2024-04-14T16:27:48.960Z,99854.16
2024-04-14T16:30:16.197Z,99847.91
2024-04-14T16:32:46.478Z,99846.56
2024-04-14T16:35:13.769Z,99847.44
2024-04-14T16:37:42.321Z,99845.28
2024-04-14T16:40:10.205Z,99840.66
2024-04-14T16:42:37.405Z,99836.34
2024-04-14T16:45:06.251Z,99835.31
2024-04-14T16:47:34.323Z,99834.25
2024-04-14T16:50:03.076Z,99836.97
2024-04-14T16:52:30.232Z,99838.66
2024-04-14T16:54:57.503Z,99829.69
2024-04-14T16:57:24.702Z,99834.63
2024-04-14T16:59:52.211Z,99836.00
2024-04-14T17:02:19.402Z,99837.38
2024-04-14T17:04:46.738Z,99827.81
2024-04-14T17:07:16.964Z,99827.31
2024-04-14T17:09:45.136Z,99839.88
2024-04-14T17:12:13.232Z,99833.38
2024-04-14T17:14:43.235Z,99830.66
2024-04-14T17:17:12.571Z,99835.06
2024-04-14T17:19:39.696Z,99832.38
2024-04-14T17:22:06.887Z,99826.41
2024-04-14T17:24:34.099Z,99822.59
2024-04-14T17:27:01.262Z,99817.16
2024-04-14T17:29:29.099Z,99812.84
2024-04-14T17:31:56.256Z,99826.53
2024-04-14T17:34:24.388Z,99810.44
2024-04-14T17:36:51.634Z,99813.47
2024-04-14T17:39:18.787Z,99814.28
2024-04-14T17:41:48.652Z,99807.53
2024-04-14T17:44:18.798Z,99809.44
2024-04-14T17:46:45.908Z,99804.28
2024-04-14T17:49:13.100Z,99792.06
2024-04-14T17:51:43.732Z,99802.44
2024-04-14T17:54:17.490Z,99806.56
2024-04-14T17:56:44.652Z,99798.94
2024-04-14T17:59:13.219Z,99796.75
2024-04-14T18:01:40.837Z,99793.50
2024-04-14T18:04:11.740Z,99792.97
2024-04-14T18:06:39.491Z,99793.53
2024-04-14T18:09:06.897Z,99782.91
2024-04-14T18:11:34.143Z,99786.19
2024-04-14T18:14:01.541Z,99783.19
2024-04-14T18:16:28.741Z,99773.94
2024-04-14T18:18:55.935Z,99770.97
2024-04-14T18:21:23.170Z,99774.50
2024-04-14T18:23:50.311Z,99768.75
2024-04-14T18:26:20.227Z,99779.06
2024-04-14T18:28:58.836Z,99775.53
2024-04-14T18:31:26.271Z,99769.00
2024-04-14T18:33:53.695Z,99769.25
2024-04-14T18:36:26.116Z,99763.53
2024-04-14T18:38:58.804Z,99772.44
2024-04-14T18:41:26.007Z,99767.81
2024-04-14T18:43:57.549Z,99759.34
2024-04-14T18:46:36.255Z,99764.47
2024-04-14T18:49:03.635Z,99764.16
2024-04-14T18:51:30.929Z,99775.53
2024-04-14T18:53:58.090Z,99770.59
2024-04-14T18:56:25.229Z,99766.47
2024-04-14T18:58:52.395Z,99769.44
2024-04-14T19:01:19.701Z,99768.03
2024-04-14T19:03:47.245Z,99771.78
2024-04-14T19:06:14.561Z,99773.91
2024-04-14T19:08:41.741Z,99773.34
2024-04-14T19:11:09.139Z,99771.66
2024-04-14T19:13:36.516Z,99773.50
2024-04-14T19:16:05.406Z,99768.03
2024-04-14T19:18:33.227Z,99767.19
2024-04-14T19:21:00.449Z,99767.41
2024-04-14T19:23:27.583Z,99762.75
2024-04-14T19:26:02.726Z,99763.78
2024-04-14T19:28:29.966Z,99764.00
2024-04-14T19:30:57.181Z,99760.94
2024-04-14T19:33:24.397Z,99760.84
2024-04-14T19:35:57.139Z,99767.00
2024-04-14T19:38:29.718Z,99763.69
2024-04-14T19:40:58.747Z,99761.19
2024-04-14T19:43:25.985Z,99761.13
2024-04-14T19:45:53.282Z,99753.97
2024-04-14T19:48:20.644Z,99745.78
2024-04-14T19:50:48.194Z,99741.38
2024-04-14T19:53:19.746Z,99741.34
2024-04-14T19:55:47.739Z,99746.69
2024-04-14T19:58:18.063Z,99736.88
2024-04-14T20:00:49.759Z,99729.78
2024-04-14T20:03:50.348Z,99728.06
2024-04-14T20:07:24.528Z,99722.56
2024-04-14T20:09:51.909Z,99717.06
2024-04-14T20:12:21.616Z,99716.44
2024-04-14T20:14:49.824Z,99710.16
2024-04-14T20:17:17.103Z,99707.38
2024-04-14T20:20:18.631Z,99704.59
2024-04-14T20:22:47.223Z,99702.91
2024-04-14T20:25:15.960Z,99701.50
2024-04-14T20:28:07.699Z,99699.53
2024-04-14T20:30:34.884Z,99703.00
2024-04-14T20:33:05.694Z,99699.94
2024-04-14T20:35:40.537Z,99693.97
2024-04-14T20:38:07.963Z,99684.50
2024-04-14T20:40:36.473Z,99685.78
2024-04-14T20:43:06.509Z,99679.00
2024-04-14T20:45:33.818Z,99673.59
2024-04-14T20:48:02.530Z,99671.38
2024-04-14T20:51:00.551Z,99677.28
2024-04-14T20:57:07.857Z,99665.84
2024-04-14T21:00:08.568Z,99656.31
2024-04-14T21:03:01.704Z,99654.94
2024-04-14T21:05:34.263Z,99671.31
2024-04-14T21:05:42.383Z,99655.47
2024-04-14T21:08:14.035Z,99651.13
2024-04-14T21:10:47.168Z,99646.75
2024-04-14T21:13:22.293Z,99645.13
2024-04-14T21:15:49.451Z,99642.41
2024-04-14T21:18:16.790Z,99646.19
2024-04-14T21:20:44.057Z,99644.56
2024-04-14T21:23:11.234Z,99645.88
2024-04-14T21:29:06.815Z,99647.44
2024-04-14T21:31:34.003Z,99647.69
2024-04-14T21:34:08.830Z,99650.06
2024-04-14T21:36:48.937Z,99637.88
2024-04-14T21:45:07.020Z,99626.97
2024-04-14T21:48:17.723Z,99622.09
2024-04-14T21:51:27.796Z,99621.50
2024-04-14T21:53:54.986Z,99611.75
2024-04-14T21:56:22.190Z,99611.19
2024-04-14T21:58:50.546Z,99609.56
2024-04-14T22:01:18.375Z,99611.69
2024-04-14T22:03:55.183Z,99605.72
2024-04-14T22:06:28.486Z,99606.78
2024-04-14T22:08:55.694Z,99605.38
2024-04-14T22:11:22.957Z,99608.31
2024-04-14T22:13:50.120Z,99602.38
2024-04-14T22:16:17.535Z,99604.50
2024-04-14T22:18:44.719Z,99593.09
2024-04-14T22:21:11.940Z,99602.53
2024-04-14T22:23:39.085Z,99597.38
2024-04-14T22:26:06.284Z,99600.53
2024-04-14T22:28:34.318Z,99603.72
2024-04-14T22:31:01.574Z,99606.91
2024-04-14T22:33:28.800Z,99606.59
2024-04-14T22:35:55.974Z,99607.88
2024-04-14T22:38:23.924Z,99610.53
2024-04-14T22:40:51.086Z,99609.38
2024-04-14T22:43:18.514Z,99619.00
2024-04-14T22:45:46.449Z,99617.06
2024-04-14T22:48:13.655Z,99616.72
2024-04-14T22:50:40.837Z,99612.88
2024-04-14T22:53:08.245Z,99603.63
2024-04-14T22:55:37.114Z,99597.88
2024-04-14T22:58:04.489Z,99598.38
2024-04-14T23:00:31.635Z,99591.59
2024-04-14T23:02:58.917Z,99597.47
2024-04-14T23:05:26.631Z,99606.06
2024-04-14T23:07:53.795Z,99615.69
2024-04-14T23:10:22.478Z,99626.16
2024-04-14T23:12:50.443Z,99609.63
2024-04-14T23:15:17.676Z,99593.94
2024-04-14T23:17:51.560Z,99597.09
2024-04-14T23:20:18.778Z,99605.69
2024-04-14T23:22:45.903Z,99609.91
2024-04-14T23:25:13.109Z,99614.16
2024-04-14T23:27:40.283Z,99620.84
2024-04-14T23:30:08.599Z,99621.56
2024-04-14T23:32:36.057Z,99612.34
2024-04-14T23:35:03.211Z,99605.75
2024-04-14T23:37:30.321Z,99599.19
2024-04-14T23:39:57.445Z,99600.47
2024-04-14T23:42:24.539Z,99609.06
2024-04-14T23:44:51.766Z,99607.06
2024-04-14T23:47:18.963Z,99608.59
2024-04-14T23:49:46.055Z,99607.44
2024-04-14T23:52:15.874Z,99606.28
2024-04-14T23:54:43.786Z,99598.06
2024-04-14T23:57:10.939Z,99599.63
2024-04-14T23:59:38.031Z,99594.13
